MacDowall, Canada
Current Conditions -  °F | °C
As of 8:00 PM on Friday 19 Dec 2014 (Local Time) from CYPA Reporting Station
Light Snow Light Snow  
Wind Chill:   Ceiling: 200
Heat Index: 18°   Visibility: 1mi
Dew Point: 16°   Wind: 8mph
Humidity: 93%   Direction: 140°SE
Pressure: 29.92"   Gusts: NA
Location:  53.02°N, 106.01°W
Report Text: CYPA 200200Z 14007KT 1SM R08/5500VP6000FT/U -SG BR OVC002 M08/M09 A2992 RMK ST8 SLP163
Loading
Personal Weather Stations






























Interactive Weather Map New forecast layout! Learn more

10-Day Weather Forecast

Advertisements
Track Severe Weather on mobile